createdAt,value
2023-02-19T00:01:40.885Z,96482.78
2023-02-19T00:04:08.404Z,96477.88
2023-02-19T00:06:35.055Z,96475.44
2023-02-19T00:09:01.548Z,96477.97
2023-02-19T00:11:29.301Z,96477.97
2023-02-19T00:13:55.981Z,96471.84
2023-02-19T00:16:23.810Z,96486.03
2023-02-19T00:18:50.300Z,96481.94
2023-02-19T00:21:16.856Z,96481.50
2023-02-19T00:23:43.347Z,96466.88
2023-02-19T00:26:18.257Z,96468.38
2023-02-19T00:28:45.403Z,96470.63
2023-02-19T00:31:19.073Z,96469.91
2023-02-19T00:33:46.247Z,96464.31
2023-02-19T00:36:12.689Z,96458.19
2023-02-19T00:38:39.910Z,96462.28
2023-02-19T00:41:19.148Z,96451.47
2023-02-19T00:43:49.837Z,96455.72
2023-02-19T00:46:16.851Z,96460.03
2023-02-19T00:48:43.621Z,96453.13
2023-02-19T00:51:10.382Z,96461.13
2023-02-19T00:53:36.970Z,96449.84
2023-02-19T00:56:03.545Z,96441.06
2023-02-19T00:58:30.535Z,96452.44
2023-02-19T01:00:57.118Z,96446.44
2023-02-19T01:03:23.663Z,96434.88
2023-02-19T01:05:50.872Z,96442.91
2023-02-19T01:08:17.542Z,96433.88
2023-02-19T01:10:44.089Z,96433.78
2023-02-19T01:13:10.702Z,96434.69
2023-02-19T01:15:37.275Z,96436.88
2023-02-19T01:18:03.925Z,96432.13
2023-02-19T01:20:30.669Z,96426.81
2023-02-19T01:22:57.155Z,96421.94
2023-02-19T01:25:23.891Z,96422.84
2023-02-19T01:27:50.326Z,96415.22
2023-02-19T01:30:16.839Z,96423.66
2023-02-19T01:32:43.296Z,96414.81
2023-02-19T01:35:10.013Z,96412.78
2023-02-19T01:37:36.456Z,96409.66
2023-02-19T01:40:02.910Z,96413.78
2023-02-19T01:42:29.362Z,96407.00
2023-02-19T01:45:22.213Z,96406.63
2023-02-19T01:47:50.120Z,96409.34
2023-02-19T01:50:16.568Z,96401.44
2023-02-19T01:52:43.048Z,96403.63
2023-02-19T01:55:10.931Z,96397.28
2023-02-19T01:57:38.271Z,96404.91
2023-02-19T02:00:14.569Z,96400.25
2023-02-19T02:02:41.529Z,96397.44
2023-02-19T02:05:09.820Z,96396.63
2023-02-19T02:07:54.978Z,96392.97
2023-02-19T02:10:21.559Z,96392.44
2023-02-19T02:12:48.548Z,96391.47
2023-02-19T02:15:15.453Z,96386.75
2023-02-19T02:17:47.359Z,96384.03
2023-02-19T02:20:20.213Z,96381.88
2023-02-19T02:22:46.635Z,96376.03
2023-02-19T02:25:19.260Z,96366.66
2023-02-19T02:28:06.630Z,96352.91
2023-02-19T02:30:39.281Z,96365.56
2023-02-19T02:33:11.871Z,96372.34
2023-02-19T02:35:46.692Z,96370.88
2023-02-19T02:38:13.193Z,96379.00
2023-02-19T02:40:39.964Z,96378.88
2023-02-19T02:43:06.955Z,96379.28
2023-02-19T02:45:37.042Z,96380.09
2023-02-19T02:48:06.796Z,96366.59
2023-02-19T02:50:37.446Z,96368.09
2023-02-19T02:53:24.282Z,96359.66
2023-02-19T02:55:51.902Z,96355.19
2023-02-19T02:58:18.538Z,96353.13
2023-02-19T03:01:03.748Z,96352.47
2023-02-19T03:03:30.427Z,96353.28
2023-02-19T03:05:58.632Z,96358.59
2023-02-19T03:08:27.237Z,96357.63
2023-02-19T03:10:55.840Z,96354.09
2023-02-19T03:13:42.006Z,96358.28
2023-02-19T03:16:29.152Z,96353.28
2023-02-19T03:19:14.919Z,96355.59
2023-02-19T03:21:41.534Z,96349.69
2023-02-19T03:24:27.858Z,96358.09
2023-02-19T03:26:54.545Z,96355.81
2023-02-19T03:29:23.259Z,96351.88
2023-02-19T03:31:50.247Z,96344.06
2023-02-19T03:34:18.392Z,96347.06
2023-02-19T03:36:46.209Z,96343.38
2023-02-19T03:39:13.162Z,96346.75
2023-02-19T03:41:58.225Z,96340.13
2023-02-19T03:44:43.645Z,96337.00
2023-02-19T03:47:13.734Z,96342.88
2023-02-19T03:49:48.896Z,96336.09
2023-02-19T03:52:20.884Z,96340.56
2023-02-19T03:54:49.685Z,96337.41
2023-02-19T03:57:21.245Z,96326.44
2023-02-19T03:59:47.682Z,96334.84
2023-02-19T04:02:15.031Z,96328.34
2023-02-19T04:04:44.810Z,96338.16
2023-02-19T04:07:11.318Z,96341.53
2023-02-19T04:09:38.895Z,96327.00
2023-02-19T04:12:05.439Z,96327.56
2023-02-19T04:14:31.879Z,96334.94
2023-02-19T04:16:59.173Z,96331.53
2023-02-19T04:19:25.959Z,96323.25
2023-02-19T04:21:52.401Z,96323.41
2023-02-19T04:24:22.785Z,96323.25
2023-02-19T04:26:49.250Z,96322.09
2023-02-19T04:29:15.779Z,96323.97
2023-02-19T04:31:45.478Z,96314.75
2023-02-19T04:34:11.956Z,96323.47
2023-02-19T04:36:38.557Z,96319.22
2023-02-19T04:39:05.080Z,96312.19
2023-02-19T04:41:31.645Z,96316.06
2023-02-19T04:43:58.067Z,96310.25
2023-02-19T04:46:24.750Z,96306.88
2023-02-19T04:48:51.453Z,96299.38
2023-02-19T04:51:18.030Z,96304.44
2023-02-19T04:53:44.652Z,96295.88
2023-02-19T04:56:14.686Z,96296.81
2023-02-19T04:58:41.445Z,96303.75
2023-02-19T05:01:08.124Z,96299.69
2023-02-19T05:03:37.641Z,96298.56
2023-02-19T05:06:07.926Z,96289.34
2023-02-19T05:08:34.362Z,96296.13
2023-02-19T05:11:00.951Z,96289.03
2023-02-19T05:13:27.452Z,96282.09
2023-02-19T05:15:57.595Z,96267.28
2023-02-19T05:18:24.103Z,96266.59
2023-02-19T05:20:50.775Z,96264.44
2023-02-19T05:23:17.329Z,96258.63
2023-02-19T05:25:43.750Z,96258.88
2023-02-19T05:28:19.351Z,96252.75
2023-02-19T05:30:50.029Z,96253.03
2023-02-19T05:33:17.126Z,96260.94
2023-02-19T05:35:53.533Z,96249.34
2023-02-19T05:38:20.211Z,96266.47
2023-02-19T05:40:46.823Z,96263.38
2023-02-19T05:43:13.383Z,96265.41
2023-02-19T05:45:39.966Z,96262.16
2023-02-19T05:48:06.835Z,96259.84
2023-02-19T05:51:01.155Z,96259.28
2023-02-19T05:53:27.583Z,96253.19
2023-02-19T05:55:54.023Z,96250.88
2023-02-19T05:58:20.631Z,96256.97
2023-02-19T06:00:47.069Z,96254.50
2023-02-19T06:03:13.502Z,96254.66
2023-02-19T06:05:40.011Z,96259.97
2023-02-19T06:08:06.451Z,96260.41
2023-02-19T06:10:33.044Z,96257.97
2023-02-19T06:12:59.497Z,96266.78
2023-02-19T06:15:25.937Z,96258.53
2023-02-19T06:17:52.691Z,96260.97
2023-02-19T06:20:19.373Z,96257.59
2023-02-19T06:22:45.998Z,96251.75
2023-02-19T06:25:12.843Z,96242.25
2023-02-19T06:27:39.547Z,96239.50
2023-02-19T06:30:06.248Z,96226.31
2023-02-19T06:32:32.768Z,96236.34
2023-02-19T06:34:59.273Z,96229.56
2023-02-19T06:37:25.739Z,96237.19
2023-02-19T06:39:52.248Z,96239.28
2023-02-19T06:42:19.254Z,96238.75
2023-02-19T06:44:45.768Z,96230.84
2023-02-19T06:47:12.220Z,96228.66
2023-02-19T06:49:41.804Z,96230.16
2023-02-19T06:52:08.497Z,96227.69
2023-02-19T06:54:35.113Z,96228.53
2023-02-19T06:57:01.703Z,96236.53
2023-02-19T06:59:28.235Z,96231.78
2023-02-19T07:01:54.746Z,96229.34
2023-02-19T07:04:21.515Z,96227.84
2023-02-19T07:06:48.134Z,96229.47
2023-02-19T07:09:14.713Z,96237.34
2023-02-19T07:11:41.278Z,96230.72
2023-02-19T07:14:08.480Z,96236.16
2023-02-19T07:16:35.082Z,96239.69
2023-02-19T07:19:01.628Z,96228.41
2023-02-19T07:21:28.163Z,96226.50
2023-02-19T07:23:54.733Z,96217.13
2023-02-19T07:26:21.247Z,96212.41
2023-02-19T07:28:48.209Z,96209.84
2023-02-19T07:31:15.640Z,96202.38
2023-02-19T07:33:45.393Z,96202.22
2023-02-19T07:36:11.920Z,96208.19
2023-02-19T07:38:38.379Z,96196.78
2023-02-19T07:41:05.027Z,96194.22
2023-02-19T07:43:32.260Z,96197.69
2023-02-19T07:45:58.742Z,96199.44
2023-02-19T07:48:25.268Z,96196.72
2023-02-19T07:50:55.427Z,96193.06
2023-02-19T07:53:22.072Z,96193.44
2023-02-19T07:55:49.021Z,96192.47
2023-02-19T07:58:15.545Z,96192.75
2023-02-19T08:00:41.978Z,96194.41
2023-02-19T08:03:08.601Z,96191.25
2023-02-19T08:05:38.043Z,96196.25
2023-02-19T08:08:08.249Z,96195.00
2023-02-19T08:10:53.485Z,96195.13
2023-02-19T08:13:20.063Z,96193.50
2023-02-19T08:15:46.771Z,96193.38
2023-02-19T08:18:13.390Z,96197.06
2023-02-19T08:20:39.980Z,96196.63
2023-02-19T08:23:06.428Z,96187.91
2023-02-19T08:25:33.002Z,96198.25
2023-02-19T08:28:00.484Z,96201.91
2023-02-19T08:30:27.669Z,96196.75
2023-02-19T08:32:54.415Z,96201.50
2023-02-19T08:35:21.020Z,96203.22
2023-02-19T08:37:47.500Z,96105.63
2023-02-19T08:40:13.922Z,96201.44
2023-02-19T08:42:40.487Z,96191.91
2023-02-19T08:45:07.155Z,96192.06
2023-02-19T08:47:36.778Z,96196.44
2023-02-19T08:50:05.125Z,96195.69
2023-02-19T08:52:31.763Z,96196.50
2023-02-19T08:54:58.332Z,96184.53
2023-02-19T08:57:25.212Z,96188.16
2023-02-19T08:59:51.667Z,96182.72
2023-02-19T09:02:18.141Z,96183.53
2023-02-19T09:04:44.600Z,96185.41
2023-02-19T09:07:12.129Z,96177.47
2023-02-19T09:09:38.688Z,96175.56
2023-02-19T09:12:05.807Z,96183.66
2023-02-19T09:14:33.073Z,96188.31
2023-02-19T09:16:59.503Z,96187.50
2023-02-19T09:19:26.552Z,96171.03
2023-02-19T09:21:53.113Z,96188.53
2023-02-19T09:24:19.684Z,96187.06
2023-02-19T09:26:48.664Z,96198.88
2023-02-19T09:29:15.498Z,96181.75
2023-02-19T09:31:42.211Z,96173.84
2023-02-19T09:34:08.757Z,96169.34
2023-02-19T09:36:35.285Z,96172.16
2023-02-19T09:39:02.136Z,96176.38
2023-02-19T09:41:32.600Z,96175.19
2023-02-19T09:43:59.293Z,96174.00
2023-02-19T09:46:30.790Z,96180.63
2023-02-19T09:48:59.179Z,96190.16
2023-02-19T09:51:25.612Z,96199.91
2023-02-19T09:53:52.145Z,96187.56
2023-02-19T09:56:18.655Z,96190.47
2023-02-19T09:58:48.745Z,96190.16
2023-02-19T10:01:15.267Z,96179.38
2023-02-19T10:03:43.832Z,96183.00
2023-02-19T10:06:24.075Z,96185.94
2023-02-19T10:08:51.730Z,96183.00
2023-02-19T10:11:18.829Z,96186.38
2023-02-19T10:13:57.459Z,96202.31
2023-02-19T10:16:24.983Z,96197.69
2023-02-19T10:18:51.472Z,96196.28
2023-02-19T10:21:19.949Z,96195.47
2023-02-19T10:23:47.122Z,96203.81
2023-02-19T10:26:13.744Z,96218.56
2023-02-19T10:28:40.444Z,96222.69
2023-02-19T10:31:18.849Z,96229.09
2023-02-19T10:33:52.995Z,96230.72
2023-02-19T10:36:22.908Z,96231.91
2023-02-19T10:38:49.556Z,96231.69
2023-02-19T10:41:21.044Z,96217.16
2023-02-19T10:43:59.870Z,96234.00
2023-02-19T10:46:27.360Z,96255.63
2023-02-19T10:48:55.477Z,96256.44
2023-02-19T10:51:22.998Z,96256.66
2023-02-19T10:53:50.230Z,96251.66
2023-02-19T10:56:26.561Z,96255.19
2023-02-19T10:58:53.188Z,96247.81
2023-02-19T11:01:20.281Z,96250.25
2023-02-19T11:03:50.287Z,96247.75
2023-02-19T11:06:17.714Z,96257.28
2023-02-19T11:08:53.431Z,96255.66
2023-02-19T11:11:22.860Z,96273.38
2023-02-19T11:13:49.293Z,96275.41
2023-02-19T11:16:15.845Z,96276.53
2023-02-19T11:18:45.348Z,96271.59
2023-02-19T11:21:28.993Z,96268.41
2023-02-19T11:23:55.712Z,96268.13
2023-02-19T11:26:25.672Z,96272.97
2023-02-19T11:28:55.683Z,96269.91
2023-02-19T11:31:31.818Z,96274.13
2023-02-19T11:34:29.230Z,96267.56
2023-02-19T11:37:09.340Z,96263.63
2023-02-19T11:39:36.094Z,96269.47
2023-02-19T11:42:08.519Z,96263.47
2023-02-19T11:44:39.875Z,96263.41
2023-02-19T11:47:06.298Z,96269.06
2023-02-19T11:49:35.864Z,96280.09
2023-02-19T11:52:05.345Z,96266.78
2023-02-19T11:54:31.808Z,96267.16
2023-02-19T11:57:04.901Z,96267.44
2023-02-19T11:59:54.632Z,96259.63
2023-02-19T12:02:31.656Z,96270.59
2023-02-19T12:05:01.222Z,96271.22
2023-02-19T12:07:53.021Z,96277.06
2023-02-19T12:10:29.023Z,96274.34
2023-02-19T12:13:04.794Z,96267.59
2023-02-19T12:15:50.023Z,96270.72
2023-02-19T12:18:23.778Z,96283.31
2023-02-19T12:20:50.248Z,96280.09
2023-02-19T12:23:35.577Z,96286.34
2023-02-19T12:26:14.297Z,96287.63
2023-02-19T12:28:47.862Z,96289.41
2023-02-19T12:31:17.818Z,96293.47
2023-02-19T12:34:03.241Z,96290.81
2023-02-19T12:36:50.011Z,96286.75
2023-02-19T12:39:26.610Z,96290.59
2023-02-19T12:42:13.262Z,96297.09
2023-02-19T12:44:39.889Z,96309.38
2023-02-19T12:47:09.313Z,96312.28
2023-02-19T12:49:42.516Z,96314.97
2023-02-19T12:52:16.647Z,96314.44
2023-02-19T12:54:44.263Z,96308.66
2023-02-19T12:57:14.890Z,96319.03
2023-02-19T12:59:53.779Z,96307.22
2023-02-19T13:02:38.902Z,96318.25
2023-02-19T13:05:15.602Z,96316.78
2023-02-19T13:08:11.414Z,96320.47
2023-02-19T13:10:43.374Z,96323.34
2023-02-19T13:13:17.776Z,96333.91
2023-02-19T13:15:45.634Z,96338.88
2023-02-19T13:18:31.946Z,96350.16
2023-02-19T13:20:58.428Z,96351.25
2023-02-19T13:23:53.855Z,96372.00
2023-02-19T13:26:40.593Z,96383.56
2023-02-19T13:29:16.393Z,96398.63
2023-02-19T13:31:49.254Z,96402.13
2023-02-19T13:34:34.120Z,96392.34
2023-02-19T13:37:01.097Z,96405.19
2023-02-19T13:39:28.554Z,96413.06
2023-02-19T13:41:59.054Z,96408.88
2023-02-19T13:44:29.210Z,96407.50
2023-02-19T13:46:55.768Z,96414.06
2023-02-19T13:49:28.312Z,96411.03
2023-02-19T13:51:58.340Z,96415.06
2023-02-19T13:54:26.509Z,96417.91
2023-02-19T13:57:12.345Z,96401.34
2023-02-19T13:59:38.989Z,96419.22
2023-02-19T14:02:06.684Z,96407.00
2023-02-19T14:04:51.581Z,96408.09
2023-02-19T14:07:18.077Z,96414.03
2023-02-19T14:09:47.622Z,96416.31
2023-02-19T14:12:15.931Z,96425.38
2023-02-19T14:14:45.991Z,96425.81
2023-02-19T14:17:25.771Z,96437.28
2023-02-19T14:20:12.448Z,96441.34
2023-02-19T14:22:45.235Z,96452.53
2023-02-19T14:25:14.772Z,96447.88
2023-02-19T14:27:41.358Z,96449.69
2023-02-19T14:30:09.624Z,96472.78
2023-02-19T14:32:36.067Z,96478.66
2023-02-19T14:35:02.522Z,96484.44
2023-02-19T14:37:29.046Z,96494.94
2023-02-19T14:39:57.906Z,96514.72
2023-02-19T14:42:32.617Z,96501.44
2023-02-19T14:44:59.878Z,96524.94
2023-02-19T14:47:27.250Z,96516.06
2023-02-19T14:50:20.109Z,96524.69
2023-02-19T14:52:48.213Z,96516.09
2023-02-19T14:55:23.534Z,96523.31
2023-02-19T14:57:50.184Z,96525.22
2023-02-19T15:00:22.837Z,96533.63
2023-02-19T15:02:57.854Z,96521.13
2023-02-19T15:05:25.580Z,96536.19
2023-02-19T15:07:52.427Z,96529.53
2023-02-19T15:10:19.716Z,96537.47
2023-02-19T15:12:47.310Z,96532.56
2023-02-19T15:15:23.949Z,96544.22
2023-02-19T15:17:50.643Z,96551.22
2023-02-19T15:20:18.182Z,96571.16
2023-02-19T15:22:46.084Z,96565.91
2023-02-19T15:25:16.278Z,96573.97
2023-02-19T15:27:42.763Z,96581.31
2023-02-19T15:30:19.521Z,96592.59
2023-02-19T15:32:55.887Z,96598.09
2023-02-19T15:35:23.990Z,96592.84
2023-02-19T15:37:50.430Z,96597.03
2023-02-19T15:40:16.878Z,96612.44
2023-02-19T15:42:46.451Z,96613.47
2023-02-19T15:45:16.010Z,96611.28
2023-02-19T15:47:42.411Z,96612.59
2023-02-19T15:50:11.617Z,96616.88
2023-02-19T15:52:50.839Z,96624.28
2023-02-19T15:55:26.715Z,96626.03
2023-02-19T15:58:16.502Z,96634.78
2023-02-19T16:00:46.697Z,96633.91
2023-02-19T16:03:15.473Z,96650.56
2023-02-19T16:05:42.077Z,96647.50
2023-02-19T16:08:16.529Z,96658.53
2023-02-19T16:10:52.420Z,96666.66
2023-02-19T16:13:22.391Z,96679.91
2023-02-19T16:15:54.863Z,96681.97
2023-02-19T16:18:21.305Z,96694.78
2023-02-19T16:20:47.848Z,96701.47
2023-02-19T16:23:15.157Z,96711.72
2023-02-19T16:25:44.096Z,96713.66
2023-02-19T16:28:11.422Z,96732.81
2023-02-19T16:30:37.950Z,96736.00
2023-02-19T16:33:23.375Z,96745.22
2023-02-19T16:35:52.208Z,96747.06
2023-02-19T16:38:19.169Z,96763.59
2023-02-19T16:40:48.653Z,96756.13
2023-02-19T16:43:15.376Z,96761.44
2023-02-19T16:45:42.447Z,96756.72
2023-02-19T16:48:09.230Z,96755.09
2023-02-19T16:50:35.752Z,96766.06
2023-02-19T16:53:02.934Z,96767.19
2023-02-19T16:55:29.820Z,96764.13
2023-02-19T16:57:56.300Z,96780.94
2023-02-19T17:00:23.560Z,96784.53
2023-02-19T17:02:54.160Z,96794.03
2023-02-19T17:05:20.689Z,96803.06
2023-02-19T17:07:47.261Z,96805.53
2023-02-19T17:10:14.527Z,96823.38
2023-02-19T17:12:40.947Z,96828.56
2023-02-19T17:15:07.573Z,96826.53
2023-02-19T17:17:35.021Z,96827.56
2023-02-19T17:20:01.639Z,96827.56
2023-02-19T17:22:28.376Z,96840.78
2023-02-19T17:24:55.408Z,96849.47
2023-02-19T17:27:21.933Z,96851.72
2023-02-19T17:29:48.415Z,96855.59
2023-02-19T17:32:15.194Z,96863.28
2023-02-19T17:34:42.061Z,96857.19
2023-02-19T17:37:08.524Z,96869.19
2023-02-19T17:39:35.015Z,96875.13
2023-02-19T17:42:01.646Z,96868.16
2023-02-19T17:44:28.057Z,96879.66
2023-02-19T17:46:54.537Z,96887.81
2023-02-19T17:49:21.124Z,96893.13
2023-02-19T17:51:47.585Z,96892.31
2023-02-19T17:54:14.188Z,96904.94
2023-02-19T17:56:43.349Z,96902.97
2023-02-19T17:59:10.020Z,96907.28
2023-02-19T18:01:36.650Z,96907.44
2023-02-19T18:04:03.325Z,96915.94
2023-02-19T18:06:29.876Z,96918.44
2023-02-19T18:08:56.541Z,96923.56
2023-02-19T18:11:23.056Z,96931.75
2023-02-19T18:13:49.854Z,96952.22
2023-02-19T18:16:17.419Z,96943.84
2023-02-19T18:18:44.470Z,96935.34
2023-02-19T18:21:11.478Z,96938.53
2023-02-19T18:23:38.422Z,96943.84
2023-02-19T18:26:07.142Z,96941.28
2023-02-19T18:28:34.105Z,96945.38
2023-02-19T18:31:00.698Z,96947.81
2023-02-19T18:33:27.191Z,96953.41
2023-02-19T18:35:53.626Z,96939.34
2023-02-19T18:38:20.269Z,96932.22
2023-02-19T18:40:47.369Z,96931.47
2023-02-19T18:43:14.070Z,96932.56
2023-02-19T18:45:40.841Z,96946.59
2023-02-19T18:48:07.419Z,96948.69
2023-02-19T18:50:35.214Z,96948.97
2023-02-19T18:53:01.786Z,96957.66
2023-02-19T18:55:28.383Z,96966.41
2023-02-19T18:57:54.870Z,96973.63
2023-02-19T19:00:22.924Z,96971.38
2023-02-19T19:02:51.660Z,96967.16
2023-02-19T19:05:18.740Z,96978.50
2023-02-19T19:07:45.195Z,96984.25
2023-02-19T19:10:11.654Z,96988.91
2023-02-19T19:12:38.410Z,96980.78
2023-02-19T19:15:05.570Z,96980.22
2023-02-19T19:17:32.012Z,96993.09
2023-02-19T19:19:58.620Z,96995.75
2023-02-19T19:22:26.705Z,96994.28
2023-02-19T19:24:53.328Z,97001.22
2023-02-19T19:27:19.907Z,96999.50
2023-02-19T19:29:47.406Z,97008.25
2023-02-19T19:32:14.249Z,97009.97
2023-02-19T19:34:41.108Z,97021.59
2023-02-19T19:37:07.588Z,97024.06
2023-02-19T19:39:34.257Z,97030.00
2023-02-19T19:42:00.843Z,97035.19
2023-02-19T19:44:27.301Z,97035.00
2023-02-19T19:46:55.520Z,97031.22
2023-02-19T19:49:22.322Z,97041.66
2023-02-19T19:51:49.065Z,97041.34
2023-02-19T19:54:15.585Z,97049.03
2023-02-19T19:56:42.801Z,97055.72
2023-02-19T19:59:12.930Z,97055.06
2023-02-19T20:01:39.468Z,97056.06
2023-02-19T20:04:06.057Z,97051.88
2023-02-19T20:06:32.621Z,97049.94
2023-02-19T20:09:00.095Z,97049.22
2023-02-19T20:11:26.536Z,97050.03
2023-02-19T20:13:53.042Z,97052.03
2023-02-19T20:16:28.734Z,97062.00
2023-02-19T20:18:55.297Z,97060.63
2023-02-19T20:21:21.851Z,97053.22
2023-02-19T20:23:48.497Z,97055.88
2023-02-19T20:26:20.858Z,97055.03
2023-02-19T20:28:47.545Z,97050.75
2023-02-19T20:31:14.605Z,97058.06
2023-02-19T20:33:41.613Z,97063.34
2023-02-19T20:36:08.299Z,97059.00
2023-02-19T20:38:34.790Z,97059.72
2023-02-19T20:41:02.466Z,97066.47
2023-02-19T20:43:28.982Z,97067.38
2023-02-19T20:45:55.446Z,97069.03
2023-02-19T20:48:21.898Z,97082.56
2023-02-19T20:50:48.339Z,97084.38
2023-02-19T20:53:14.761Z,97086.94
2023-02-19T20:55:41.335Z,97086.13
2023-02-19T20:58:07.760Z,97080.09
2023-02-19T21:00:34.218Z,97092.00
2023-02-19T21:03:00.716Z,97085.97
2023-02-19T21:05:27.165Z,97080.00
2023-02-19T21:07:53.973Z,97091.13
2023-02-19T21:10:26.135Z,97092.97
2023-02-19T21:13:02.845Z,97083.00
2023-02-19T21:15:29.375Z,97072.13
2023-02-19T21:17:55.869Z,97074.84
2023-02-19T21:20:31.549Z,97074.47
2023-02-19T21:22:58.142Z,97080.75
2023-02-19T21:25:24.620Z,97092.25
2023-02-19T21:27:51.559Z,97101.25
2023-02-19T21:30:18.385Z,97107.41
2023-02-19T21:32:45.094Z,97110.16
2023-02-19T21:35:11.684Z,97126.41
2023-02-19T21:37:41.056Z,97119.66
2023-02-19T21:40:08.766Z,97132.34
2023-02-19T21:42:35.287Z,97134.00
2023-02-19T21:45:01.753Z,97131.44
2023-02-19T21:47:28.988Z,97140.84
2023-02-19T21:49:55.447Z,97140.75
2023-02-19T21:52:23.427Z,97138.28
2023-02-19T21:54:49.957Z,97139.94
2023-02-19T21:57:16.467Z,97135.53
2023-02-19T21:59:42.950Z,97144.06
2023-02-19T22:02:09.625Z,97146.44
2023-02-19T22:04:36.070Z,97148.91
2023-02-19T22:07:02.531Z,97146.19
2023-02-19T22:09:28.974Z,97146.91
2023-02-19T22:11:55.604Z,97157.91
2023-02-19T22:14:22.050Z,97157.91
2023-02-19T22:16:48.582Z,97146.66
2023-02-19T22:19:15.191Z,97153.44
2023-02-19T22:21:42.372Z,97156.81
2023-02-19T22:24:10.373Z,97153.44
2023-02-19T22:26:36.885Z,97155.91
2023-02-19T22:29:07.077Z,97160.13
2023-02-19T22:31:33.856Z,97163.50
2023-02-19T22:34:00.355Z,97163.41
2023-02-19T22:36:27.933Z,97173.72
2023-02-19T22:38:54.651Z,97185.84
2023-02-19T22:41:21.229Z,97184.31
2023-02-19T22:43:47.772Z,97190.38
2023-02-19T22:46:15.545Z,97198.88
2023-02-19T22:48:42.178Z,97201.38
2023-02-19T22:51:13.258Z,97199.63
2023-02-19T22:54:06.054Z,97198.81
2023-02-19T22:56:32.666Z,97201.28
2023-02-19T22:58:59.130Z,97198.72
2023-02-19T23:01:25.659Z,97203.06
2023-02-19T23:03:52.956Z,97208.19
2023-02-19T23:06:26.421Z,97211.66
2023-02-19T23:08:53.516Z,97220.25
2023-02-19T23:11:20.637Z,97213.50
2023-02-19T23:13:47.080Z,97215.38
2023-02-19T23:16:13.733Z,97213.72
2023-02-19T23:18:40.461Z,97221.31
2023-02-19T23:21:06.991Z,97216.38
2023-02-19T23:23:33.431Z,97218.94
2023-02-19T23:25:59.858Z,97227.50
2023-02-19T23:28:26.428Z,97223.38
2023-02-19T23:30:52.949Z,97227.56
2023-02-19T23:33:19.490Z,97231.03
2023-02-19T23:35:46.130Z,97228.56
2023-02-19T23:38:12.661Z,97223.56
2023-02-19T23:40:39.090Z,97215.94
2023-02-19T23:43:05.546Z,97215.94
2023-02-19T23:45:31.953Z,97216.94
2023-02-19T23:47:58.506Z,97222.06
2023-02-19T23:50:25.046Z,97219.75
2023-02-19T23:52:51.578Z,97219.97
2023-02-19T23:55:18.007Z,97214.22
2023-02-19T23:57:44.435Z,97220.25
